createdAt,value
2018-09-08T00:00:13.868Z,22.06
2018-09-08T00:01:13.774Z,22.07
2018-09-08T00:02:13.783Z,22.05
2018-09-08T00:03:13.718Z,22.06
2018-09-08T00:04:13.742Z,22.06
2018-09-08T00:05:13.727Z,22.07
2018-09-08T00:06:13.875Z,22.07
2018-09-08T00:07:13.660Z,22.07
2018-09-08T00:08:13.694Z,22.06
2018-09-08T00:09:13.768Z,22.06
2018-09-08T00:10:13.974Z,22.06
2018-09-08T00:11:13.745Z,22.06
2018-09-08T00:12:13.762Z,22.06
2018-09-08T00:13:13.771Z,22.06
2018-09-08T00:14:13.997Z,22.05
2018-09-08T00:15:13.690Z,22.07
2018-09-08T00:16:13.739Z,22.05
2018-09-08T00:17:13.671Z,22.04
2018-09-08T00:18:13.740Z,22.04
2018-09-08T00:19:13.896Z,22.05
2018-09-08T00:20:13.905Z,22.05
2018-09-08T00:21:13.882Z,22.04
2018-09-08T00:22:13.739Z,22.03
2018-09-08T00:23:13.779Z,22.03
2018-09-08T00:24:13.708Z,22.03
2018-09-08T00:25:13.884Z,22.03
2018-09-08T00:26:13.970Z,22.02
2018-09-08T00:27:13.683Z,22.03
2018-09-08T00:28:13.687Z,22.03
2018-09-08T00:29:13.876Z,22.04
2018-09-08T00:30:13.895Z,22.03
2018-09-08T00:31:13.697Z,22.02
2018-09-08T00:32:13.827Z,22.03
2018-09-08T00:33:13.850Z,22.03
2018-09-08T00:34:13.756Z,22.03
2018-09-08T00:35:13.961Z,22.02
2018-09-08T00:36:13.688Z,22.02
2018-09-08T00:37:13.849Z,22.02
2018-09-08T00:38:13.731Z,22.02
2018-09-08T00:39:13.805Z,22.02
2018-09-08T00:40:13.871Z,22.03
2018-09-08T00:41:13.924Z,22.03
2018-09-08T00:42:13.731Z,22.02
2018-09-08T00:43:13.915Z,22.03
2018-09-08T00:44:13.761Z,22.03
2018-09-08T00:45:13.789Z,22.01
2018-09-08T00:46:13.896Z,22.03
2018-09-08T00:47:13.729Z,22.02
2018-09-08T00:48:13.928Z,22.02
2018-09-08T00:49:13.717Z,22.02
2018-09-08T00:50:13.875Z,22.02
2018-09-08T00:51:13.923Z,22.02
2018-09-08T00:52:13.610Z,22.02
2018-09-08T00:53:13.917Z,22.03
2018-09-08T00:54:13.954Z,22.02
2018-09-08T00:55:13.957Z,22.01
2018-09-08T00:56:13.891Z,22.01
2018-09-08T00:57:13.851Z,22.02
2018-09-08T00:58:13.797Z,22.03
2018-09-08T00:59:14.020Z,22.01
2018-09-08T01:00:14.005Z,22.02
2018-09-08T01:01:13.941Z,22.01
2018-09-08T01:02:13.681Z,22.01
2018-09-08T01:03:13.913Z,22.01
2018-09-08T01:04:13.783Z,22.01
2018-09-08T01:05:13.941Z,22.01
2018-09-08T01:06:13.928Z,22.01
2018-09-08T01:07:13.950Z,22.02
2018-09-08T01:08:13.840Z,22.01
2018-09-08T01:09:13.752Z,22.01
2018-09-08T01:10:14.084Z,22
2018-09-08T01:11:13.784Z,22.01
2018-09-08T01:12:13.985Z,22.01
2018-09-08T01:13:13.742Z,22
2018-09-08T01:14:13.863Z,22
2018-09-08T01:15:13.769Z,21.99
2018-09-08T01:16:13.811Z,22
2018-09-08T01:17:13.917Z,21.99
2018-09-08T01:18:13.712Z,22
2018-09-08T01:19:13.768Z,22
2018-09-08T01:20:13.849Z,22.01
2018-09-08T01:21:13.855Z,22
2018-09-08T01:22:13.549Z,21.99
2018-09-08T01:23:13.936Z,21.99
2018-09-08T01:24:13.853Z,22
2018-09-08T01:25:13.734Z,22
2018-09-08T01:26:13.924Z,21.99
2018-09-08T01:27:13.672Z,21.99
2018-09-08T01:28:13.922Z,22
2018-09-08T01:29:13.828Z,21.99
2018-09-08T01:30:13.653Z,21.99
2018-09-08T01:31:13.916Z,21.99
2018-09-08T01:32:13.768Z,21.99
2018-09-08T01:33:13.752Z,21.99
2018-09-08T01:34:13.899Z,21.99
2018-09-08T01:35:13.766Z,21.99
2018-09-08T01:36:13.839Z,21.99
2018-09-08T01:37:13.834Z,21.98
2018-09-08T01:38:13.778Z,21.99
2018-09-08T01:39:13.871Z,22
2018-09-08T01:40:13.785Z,21.99
2018-09-08T01:41:13.836Z,21.98
2018-09-08T01:42:13.754Z,21.99
2018-09-08T01:43:13.755Z,21.97
2018-09-08T01:44:13.820Z,21.97
2018-09-08T01:45:13.649Z,21.97
2018-09-08T01:46:13.930Z,21.97
2018-09-08T01:47:13.666Z,21.97
2018-09-08T01:48:13.909Z,21.97
2018-09-08T01:49:13.777Z,21.97
2018-09-08T01:50:14.070Z,21.97
2018-09-08T01:51:13.904Z,21.98
2018-09-08T01:52:13.931Z,21.97
2018-09-08T01:53:13.815Z,21.97
2018-09-08T01:54:13.866Z,21.99
2018-09-08T01:55:13.813Z,21.97
2018-09-08T01:56:13.703Z,21.97
2018-09-08T01:57:13.621Z,21.97
2018-09-08T01:58:14.016Z,21.98
2018-09-08T01:59:13.800Z,21.98
2018-09-08T02:00:13.889Z,21.97
2018-09-08T02:01:13.870Z,21.97
2018-09-08T02:02:13.813Z,21.97
2018-09-08T02:03:13.816Z,21.97
2018-09-08T02:04:13.900Z,21.97
2018-09-08T02:05:14.050Z,21.97
2018-09-08T02:06:13.655Z,21.96
2018-09-08T02:07:13.921Z,21.97
2018-09-08T02:08:13.604Z,21.97
2018-09-08T02:09:13.713Z,21.96
2018-09-08T02:10:13.606Z,21.97
2018-09-08T02:11:13.904Z,21.96
2018-09-08T02:12:13.916Z,21.97
2018-09-08T02:13:13.780Z,21.98
2018-09-08T02:14:13.723Z,21.97
2018-09-08T02:15:13.921Z,21.96
2018-09-08T02:16:14.019Z,21.96
2018-09-08T02:17:13.714Z,21.96
2018-09-08T02:18:13.959Z,21.95
2018-09-08T02:19:13.766Z,21.95
2018-09-08T02:20:13.719Z,21.95
2018-09-08T02:21:13.862Z,21.96
2018-09-08T02:22:13.876Z,21.97
2018-09-08T02:23:13.873Z,21.95
2018-09-08T02:24:14.005Z,21.96
2018-09-08T02:25:13.766Z,21.97
2018-09-08T02:26:13.548Z,21.96
2018-09-08T02:27:13.738Z,21.96
2018-09-08T02:28:13.936Z,21.97
2018-09-08T02:29:13.905Z,21.96
2018-09-08T02:30:13.615Z,21.95
2018-09-08T02:31:14.044Z,21.96
2018-09-08T02:32:13.787Z,21.96
2018-09-08T02:33:13.557Z,21.96
2018-09-08T02:34:13.667Z,21.95
2018-09-08T02:35:13.704Z,21.96
2018-09-08T02:36:13.722Z,21.96
2018-09-08T02:37:13.850Z,21.96
2018-09-08T02:38:13.693Z,21.97
2018-09-08T02:39:13.703Z,21.96
2018-09-08T02:40:13.789Z,21.96
2018-09-08T02:41:13.746Z,21.95
2018-09-08T02:42:13.727Z,21.95
2018-09-08T02:43:13.933Z,21.95
2018-09-08T02:44:13.828Z,21.95
2018-09-08T02:45:13.814Z,21.95
2018-09-08T02:46:13.680Z,21.95
2018-09-08T02:47:13.666Z,21.95
2018-09-08T02:48:13.938Z,21.95
2018-09-08T02:49:13.785Z,21.95
2018-09-08T02:50:13.824Z,21.94
2018-09-08T02:51:13.781Z,21.93
2018-09-08T02:52:13.839Z,21.93
2018-09-08T02:53:13.898Z,21.93
2018-09-08T02:54:13.883Z,21.94
2018-09-08T02:55:13.676Z,21.93
2018-09-08T02:56:13.737Z,21.93
2018-09-08T02:57:13.860Z,21.94
2018-09-08T02:58:13.852Z,21.95
2018-09-08T02:59:13.789Z,21.94
2018-09-08T03:00:13.664Z,21.94
2018-09-08T03:01:13.882Z,21.95
2018-09-08T03:02:13.793Z,21.94
2018-09-08T03:03:13.843Z,21.93
2018-09-08T03:04:13.747Z,21.93
2018-09-08T03:05:13.738Z,21.94
2018-09-08T03:06:13.995Z,21.94
2018-09-08T03:07:14.085Z,21.94
2018-09-08T03:08:14.010Z,21.93
2018-09-08T03:09:13.924Z,21.92
2018-09-08T03:10:13.909Z,21.94
2018-09-08T03:11:13.830Z,21.93
2018-09-08T03:12:13.715Z,21.94
2018-09-08T03:13:13.931Z,21.93
2018-09-08T03:14:13.674Z,21.93
2018-09-08T03:15:14.024Z,21.93
2018-09-08T03:16:13.813Z,21.94
2018-09-08T03:17:13.810Z,21.94
2018-09-08T03:18:14.040Z,21.94
2018-09-08T03:19:13.762Z,21.94
2018-09-08T03:20:13.808Z,21.93
2018-09-08T03:21:13.592Z,21.93
2018-09-08T03:22:13.582Z,21.94
2018-09-08T03:23:13.782Z,21.93
2018-09-08T03:24:13.648Z,21.94
2018-09-08T03:25:13.581Z,21.91
2018-09-08T03:26:13.643Z,21.92
2018-09-08T03:27:13.645Z,21.91
2018-09-08T03:28:14.090Z,21.92
2018-09-08T03:29:13.815Z,21.92
2018-09-08T03:30:13.752Z,21.92
2018-09-08T03:31:13.819Z,21.92
2018-09-08T03:32:13.839Z,21.92
2018-09-08T03:33:13.637Z,21.91
2018-09-08T03:34:13.667Z,21.91
2018-09-08T03:35:13.853Z,21.92
2018-09-08T03:36:13.793Z,21.92
2018-09-08T03:37:13.765Z,21.91
2018-09-08T03:38:13.962Z,21.92
2018-09-08T03:39:14.058Z,21.91
2018-09-08T03:40:13.904Z,21.9
2018-09-08T03:41:13.790Z,21.91
2018-09-08T03:42:13.878Z,21.9
2018-09-08T03:43:13.845Z,21.89
2018-09-08T03:44:13.799Z,21.9
2018-09-08T03:45:14.114Z,21.9
2018-09-08T03:46:13.642Z,21.91
2018-09-08T03:47:13.703Z,21.9
2018-09-08T03:48:13.726Z,21.92
2018-09-08T03:49:13.675Z,21.9
2018-09-08T03:50:13.597Z,21.92
2018-09-08T03:51:13.939Z,21.91
2018-09-08T03:52:13.868Z,21.9
2018-09-08T03:53:13.750Z,21.91
2018-09-08T03:54:13.879Z,21.91
2018-09-08T03:55:13.689Z,21.91
2018-09-08T03:56:13.836Z,21.91
2018-09-08T03:57:13.892Z,21.91
2018-09-08T03:58:13.766Z,21.9
2018-09-08T03:59:13.788Z,21.9
2018-09-08T04:00:13.631Z,21.91
2018-09-08T04:01:14.010Z,21.92
2018-09-08T04:02:13.737Z,21.91
2018-09-08T04:03:13.734Z,21.92
2018-09-08T04:04:13.740Z,21.9
2018-09-08T04:05:13.725Z,21.9
2018-09-08T04:06:13.815Z,21.91
2018-09-08T04:07:13.865Z,21.89
2018-09-08T04:08:13.896Z,21.9
2018-09-08T04:09:13.840Z,21.91
2018-09-08T04:10:14.049Z,21.91
2018-09-08T04:11:13.623Z,21.92
2018-09-08T04:12:13.701Z,21.9
2018-09-08T04:13:13.781Z,21.89
2018-09-08T04:14:13.851Z,21.91
2018-09-08T04:15:13.611Z,21.92
2018-09-08T04:16:13.861Z,21.89
2018-09-08T04:17:13.814Z,21.9
2018-09-08T04:18:13.908Z,21.89
2018-09-08T04:19:13.477Z,21.92
2018-09-08T04:20:13.911Z,21.9
2018-09-08T04:21:13.826Z,21.91
2018-09-08T04:22:13.876Z,21.9
2018-09-08T04:23:13.835Z,21.91
2018-09-08T04:24:13.747Z,21.89
2018-09-08T04:25:13.745Z,21.91
2018-09-08T04:26:14.038Z,21.9
2018-09-08T04:27:13.524Z,21.9
2018-09-08T04:28:13.736Z,21.9
2018-09-08T04:29:13.726Z,21.91
2018-09-08T04:30:13.732Z,21.89
2018-09-08T04:31:13.594Z,21.9
2018-09-08T04:32:13.794Z,21.91
2018-09-08T04:33:13.698Z,21.89
2018-09-08T04:34:13.855Z,21.9
2018-09-08T04:35:13.860Z,21.89
2018-09-08T04:36:13.789Z,21.88
2018-09-08T04:37:13.944Z,21.88
2018-09-08T04:38:13.879Z,21.88
2018-09-08T04:39:13.933Z,21.89
2018-09-08T04:40:13.731Z,21.89
2018-09-08T04:41:13.754Z,21.9
2018-09-08T04:42:13.765Z,21.89
2018-09-08T04:43:13.918Z,21.89
2018-09-08T04:44:13.679Z,21.89
2018-09-08T04:45:14.065Z,21.87
2018-09-08T04:46:13.905Z,21.89
2018-09-08T04:47:14.021Z,21.89
2018-09-08T04:48:13.820Z,21.88
2018-09-08T04:49:13.710Z,21.89
2018-09-08T04:50:13.846Z,21.89
2018-09-08T04:51:13.825Z,21.89
2018-09-08T04:52:13.840Z,21.89
2018-09-08T04:53:13.643Z,21.88
2018-09-08T04:54:13.859Z,21.89
2018-09-08T04:55:13.615Z,21.87
2018-09-08T04:56:13.653Z,21.88
2018-09-08T04:57:13.697Z,21.88
2018-09-08T04:58:13.845Z,21.88
2018-09-08T04:59:13.727Z,21.88
2018-09-08T05:00:14.119Z,21.88
2018-09-08T05:01:13.823Z,21.88
2018-09-08T05:02:13.746Z,21.89
2018-09-08T05:03:13.957Z,21.89
2018-09-08T05:04:13.780Z,21.87
2018-09-08T05:05:14.173Z,21.87
2018-09-08T05:06:13.846Z,21.89
2018-09-08T05:07:13.826Z,21.88
2018-09-08T05:08:14.097Z,21.89
2018-09-08T05:09:13.952Z,21.88
2018-09-08T05:10:13.565Z,21.87
2018-09-08T05:11:13.851Z,21.87
2018-09-08T05:12:13.847Z,21.88
2018-09-08T05:13:13.726Z,21.89
2018-09-08T05:14:13.686Z,21.89
2018-09-08T05:15:13.872Z,21.88
2018-09-08T05:16:14.269Z,21.88
2018-09-08T05:17:13.762Z,21.88
2018-09-08T05:18:13.884Z,21.87
2018-09-08T05:19:13.624Z,21.88
2018-09-08T05:20:13.697Z,21.88
2018-09-08T05:21:13.806Z,21.87
2018-09-08T05:22:13.785Z,21.88
2018-09-08T05:23:13.838Z,21.88
2018-09-08T05:24:13.694Z,21.88
2018-09-08T05:25:13.935Z,21.88
2018-09-08T05:26:13.693Z,21.87
2018-09-08T05:27:13.618Z,21.87
2018-09-08T05:28:13.728Z,21.87
2018-09-08T05:29:13.744Z,21.85
2018-09-08T05:30:13.746Z,21.86
2018-09-08T05:31:13.688Z,21.84
2018-09-08T05:32:13.714Z,21.87
2018-09-08T05:33:13.876Z,21.87
2018-09-08T05:34:13.995Z,21.86
2018-09-08T05:35:13.793Z,21.87
2018-09-08T05:36:13.677Z,21.87
2018-09-08T05:37:13.706Z,21.87
2018-09-08T05:38:13.759Z,21.87
2018-09-08T05:39:13.870Z,21.87
2018-09-08T05:40:13.914Z,21.86
2018-09-08T05:41:14.155Z,21.86
2018-09-08T05:42:13.865Z,21.85
2018-09-08T05:43:13.692Z,21.85
2018-09-08T05:44:13.752Z,21.86
2018-09-08T05:45:13.932Z,21.85
2018-09-08T05:46:13.785Z,21.84
2018-09-08T05:47:13.824Z,21.84
2018-09-08T05:48:13.746Z,21.84
2018-09-08T05:49:13.872Z,21.85
2018-09-08T05:50:13.960Z,21.85
2018-09-08T05:51:14.152Z,21.84
2018-09-08T05:52:13.821Z,21.85
2018-09-08T05:53:14.049Z,21.84
2018-09-08T05:54:13.645Z,21.84
2018-09-08T05:55:13.772Z,21.83
2018-09-08T05:56:13.932Z,21.85
2018-09-08T05:57:13.796Z,21.84
2018-09-08T05:58:13.821Z,21.84
2018-09-08T05:59:13.717Z,21.83
2018-09-08T06:00:13.859Z,21.84
2018-09-08T06:01:13.945Z,21.84
2018-09-08T06:02:13.839Z,21.83
2018-09-08T06:03:14.235Z,21.83
2018-09-08T06:04:13.548Z,21.83
2018-09-08T06:05:13.915Z,21.83
2018-09-08T06:06:13.725Z,21.83
2018-09-08T06:07:13.955Z,21.81
2018-09-08T06:08:13.855Z,21.82
2018-09-08T06:09:13.917Z,21.82
2018-09-08T06:10:13.776Z,21.85
2018-09-08T06:11:13.822Z,21.84
2018-09-08T06:12:13.722Z,21.83
2018-09-08T06:13:13.687Z,21.83
2018-09-08T06:14:13.921Z,21.84
2018-09-08T06:15:13.725Z,21.83
2018-09-08T06:16:13.668Z,21.83
2018-09-08T06:17:13.759Z,21.83
2018-09-08T06:18:13.965Z,21.84
2018-09-08T06:19:13.739Z,21.83
2018-09-08T06:20:13.678Z,21.83
2018-09-08T06:21:13.595Z,21.83
2018-09-08T06:22:13.795Z,21.84
2018-09-08T06:23:13.692Z,21.83
2018-09-08T06:24:13.878Z,21.84
2018-09-08T06:25:13.988Z,21.83
2018-09-08T06:26:13.894Z,21.82
2018-09-08T06:27:13.752Z,21.83
2018-09-08T06:28:13.770Z,21.82
2018-09-08T06:29:13.628Z,21.83
2018-09-08T06:30:13.813Z,21.82
2018-09-08T06:31:13.578Z,21.83
2018-09-08T06:32:13.741Z,21.81
2018-09-08T06:33:13.545Z,21.81
2018-09-08T06:34:13.834Z,21.82
2018-09-08T06:35:13.852Z,21.82
2018-09-08T06:36:13.862Z,21.81
2018-09-08T06:37:13.667Z,21.82
2018-09-08T06:38:13.770Z,21.82
2018-09-08T06:39:13.738Z,21.82
2018-09-08T06:40:13.720Z,21.82
2018-09-08T06:41:13.811Z,21.82
2018-09-08T06:42:13.606Z,21.81
2018-09-08T06:43:13.795Z,21.81
2018-09-08T06:44:13.738Z,21.81
2018-09-08T06:45:13.936Z,21.81
2018-09-08T06:46:13.796Z,21.83
2018-09-08T06:47:13.624Z,21.81
2018-09-08T06:48:13.765Z,21.81
2018-09-08T06:49:13.541Z,21.81
2018-09-08T06:50:13.581Z,21.8
2018-09-08T06:51:13.588Z,21.81
2018-09-08T06:52:13.713Z,21.81
2018-09-08T06:53:13.591Z,21.81
2018-09-08T06:54:13.813Z,21.82
2018-09-08T06:55:13.606Z,21.82
2018-09-08T06:56:13.600Z,21.81
2018-09-08T06:57:13.812Z,21.82
2018-09-08T06:58:13.733Z,21.82
2018-09-08T06:59:13.805Z,21.81
2018-09-08T07:00:13.807Z,21.82
2018-09-08T07:01:13.692Z,21.81
2018-09-08T07:02:13.717Z,21.82
2018-09-08T07:03:13.943Z,21.82
2018-09-08T07:04:13.839Z,21.81
2018-09-08T07:05:13.720Z,21.8
2018-09-08T07:06:13.735Z,21.82
2018-09-08T07:07:13.695Z,21.8
2018-09-08T07:08:13.692Z,21.81
2018-09-08T07:09:13.650Z,21.82
2018-09-08T07:10:13.806Z,21.81
2018-09-08T07:11:13.656Z,21.8
2018-09-08T07:12:13.727Z,21.81
2018-09-08T07:13:14.012Z,21.81
2018-09-08T07:14:13.770Z,21.81
2018-09-08T07:15:13.766Z,21.8
2018-09-08T07:16:13.689Z,21.82
2018-09-08T07:17:13.749Z,21.81
2018-09-08T07:18:13.595Z,21.8
2018-09-08T07:19:13.692Z,21.81
2018-09-08T07:20:13.780Z,21.81
2018-09-08T07:21:13.693Z,21.8
2018-09-08T07:22:13.692Z,21.8
2018-09-08T07:23:13.716Z,21.8
2018-09-08T07:24:13.841Z,21.81
2018-09-08T07:25:13.609Z,21.8
2018-09-08T07:26:13.787Z,21.81
2018-09-08T07:27:13.561Z,21.79
2018-09-08T07:28:13.854Z,21.8
2018-09-08T07:29:13.567Z,21.79
2018-09-08T07:30:13.644Z,21.81
2018-09-08T07:31:13.752Z,21.81
2018-09-08T07:32:13.949Z,21.8
2018-09-08T07:33:13.658Z,21.79
2018-09-08T07:34:13.748Z,21.8
2018-09-08T07:35:13.712Z,21.8
2018-09-08T07:36:13.659Z,21.79
2018-09-08T07:37:13.735Z,21.8
2018-09-08T07:38:13.726Z,21.79
2018-09-08T07:39:13.704Z,21.8
2018-09-08T07:40:13.752Z,21.81
2018-09-08T07:41:13.815Z,21.8
2018-09-08T07:42:13.786Z,21.79
2018-09-08T07:43:13.870Z,21.8
2018-09-08T07:44:13.784Z,21.8
2018-09-08T07:45:13.757Z,21.8
2018-09-08T07:46:13.814Z,21.8
2018-09-08T07:47:13.752Z,21.8
2018-09-08T07:48:13.732Z,21.8
2018-09-08T07:49:13.701Z,21.81
2018-09-08T07:50:13.746Z,21.8
2018-09-08T07:51:13.824Z,21.79
2018-09-08T07:52:13.500Z,21.8
2018-09-08T07:53:13.669Z,21.8
2018-09-08T07:54:13.736Z,21.8
2018-09-08T07:55:13.681Z,21.79
2018-09-08T07:56:14.021Z,21.8
2018-09-08T07:57:13.780Z,21.8
2018-09-08T07:58:13.675Z,21.81
2018-09-08T07:59:13.858Z,21.79
2018-09-08T08:00:13.761Z,21.79
2018-09-08T08:01:13.838Z,21.78
2018-09-08T08:02:13.637Z,21.79
2018-09-08T08:03:13.792Z,21.77
2018-09-08T08:04:13.717Z,21.8
2018-09-08T08:05:13.773Z,21.79
2018-09-08T08:06:13.742Z,21.78
2018-09-08T08:07:13.693Z,21.79
2018-09-08T08:08:13.698Z,21.79
2018-09-08T08:09:13.933Z,21.8
2018-09-08T08:10:13.609Z,21.79
2018-09-08T08:11:13.580Z,21.78
2018-09-08T08:12:13.691Z,21.79
2018-09-08T08:13:13.603Z,21.79
2018-09-08T08:14:13.461Z,21.78
2018-09-08T08:15:13.659Z,21.79
2018-09-08T08:16:13.680Z,21.78
2018-09-08T08:17:13.594Z,21.79
2018-09-08T08:18:13.574Z,21.79
2018-09-08T08:19:13.634Z,21.79
2018-09-08T08:20:14.150Z,21.79
2018-09-08T08:21:13.553Z,21.79
2018-09-08T08:22:13.671Z,21.79
2018-09-08T08:23:13.830Z,21.78
2018-09-08T08:24:13.694Z,21.77
2018-09-08T08:25:14.141Z,21.78
2018-09-08T08:26:13.656Z,21.77
2018-09-08T08:27:13.885Z,21.78
2018-09-08T08:28:13.701Z,21.77
2018-09-08T08:29:13.805Z,21.77
2018-09-08T08:30:13.585Z,21.77
2018-09-08T08:31:13.834Z,21.76
2018-09-08T08:32:13.731Z,21.77
2018-09-08T08:33:13.551Z,21.77
2018-09-08T08:34:13.783Z,21.76
2018-09-08T08:35:13.905Z,21.76
2018-09-08T08:36:13.600Z,21.76
2018-09-08T08:37:13.780Z,21.78
2018-09-08T08:38:13.936Z,21.76
2018-09-08T08:39:13.749Z,21.76
2018-09-08T08:40:14.016Z,21.77
2018-09-08T08:41:13.712Z,21.76
2018-09-08T08:42:13.746Z,21.78
2018-09-08T08:43:13.745Z,21.76
2018-09-08T08:44:13.749Z,21.77
2018-09-08T08:45:13.761Z,21.76
2018-09-08T08:46:13.829Z,21.8
2018-09-08T08:47:13.749Z,21.67
2018-09-08T08:48:13.691Z,21.61
2018-09-08T08:49:13.805Z,21.55
2018-09-08T08:50:13.820Z,21.46
2018-09-08T08:51:14.071Z,21.41
2018-09-08T08:52:13.825Z,21.4
2018-09-08T08:53:13.801Z,21.34
2018-09-08T08:54:13.696Z,21.29
2018-09-08T08:55:13.779Z,21.27
2018-09-08T08:56:13.816Z,21.22
2018-09-08T08:57:13.666Z,21.15
2018-09-08T08:58:13.698Z,21.15
2018-09-08T08:59:13.903Z,21.18
2018-09-08T09:00:13.674Z,21.13
2018-09-08T09:01:13.796Z,21.09
2018-09-08T09:02:13.817Z,21.08
2018-09-08T09:03:13.579Z,21.05
2018-09-08T09:04:13.573Z,21.05
2018-09-08T09:05:13.773Z,21.05
2018-09-08T09:06:13.807Z,21.04
2018-09-08T09:07:14.405Z,21.02
2018-09-08T09:08:13.714Z,21.04
2018-09-08T09:09:13.773Z,21.01
2018-09-08T09:10:13.789Z,20.99
2018-09-08T09:11:13.917Z,20.97
2018-09-08T09:12:13.704Z,20.96
2018-09-08T09:13:13.833Z,20.97
2018-09-08T09:14:13.785Z,20.97
2018-09-08T09:15:13.894Z,20.92
2018-09-08T09:16:13.729Z,20.93
2018-09-08T09:17:13.622Z,20.9
2018-09-08T09:18:13.758Z,20.9
2018-09-08T09:19:13.726Z,20.9
2018-09-08T09:20:13.749Z,20.93
2018-09-08T09:21:13.598Z,20.96
2018-09-08T09:22:14.024Z,20.91
2018-09-08T09:23:13.758Z,20.94
2018-09-08T09:24:13.599Z,20.93
2018-09-08T09:25:13.982Z,20.89
2018-09-08T09:26:13.896Z,20.89
2018-09-08T09:27:13.722Z,20.95
2018-09-08T09:28:13.924Z,20.94
2018-09-08T09:29:13.607Z,20.99
2018-09-08T09:30:13.605Z,20.95
2018-09-08T09:31:13.532Z,20.9
2018-09-08T09:32:13.752Z,20.86
2018-09-08T09:33:13.790Z,20.84
2018-09-08T09:34:13.628Z,20.88
2018-09-08T09:35:13.808Z,20.88
2018-09-08T09:36:13.523Z,20.85
2018-09-08T09:37:13.842Z,20.85
2018-09-08T09:38:13.808Z,20.81
2018-09-08T09:39:13.765Z,20.83
2018-09-08T09:40:13.669Z,20.89
2018-09-08T09:41:13.574Z,20.92
2018-09-08T09:42:13.535Z,20.85
2018-09-08T09:43:13.658Z,20.84
2018-09-08T09:44:13.902Z,20.87
2018-09-08T09:45:13.624Z,20.9
2018-09-08T09:46:13.730Z,20.91
2018-09-08T09:47:13.714Z,20.94
2018-09-08T09:48:13.563Z,21
2018-09-08T09:49:13.660Z,21.01
2018-09-08T09:50:13.810Z,20.91
2018-09-08T09:51:13.777Z,20.96
2018-09-08T09:52:13.673Z,20.92
2018-09-08T09:53:13.800Z,20.94
2018-09-08T09:54:13.830Z,20.88
2018-09-08T09:55:13.860Z,20.9
2018-09-08T09:56:13.738Z,20.86
2018-09-08T09:57:14.183Z,20.89
2018-09-08T09:58:13.756Z,20.92
2018-09-08T09:59:13.717Z,20.91
2018-09-08T10:00:13.869Z,20.91
2018-09-08T10:01:13.661Z,20.93
2018-09-08T10:02:13.818Z,20.91
2018-09-08T10:03:13.675Z,20.91
2018-09-08T10:04:13.717Z,20.91
2018-09-08T10:05:13.759Z,20.92
2018-09-08T10:06:13.916Z,20.93
2018-09-08T10:07:13.823Z,20.94
2018-09-08T10:08:13.787Z,20.92
2018-09-08T10:09:13.780Z,20.97
2018-09-08T10:10:13.783Z,20.99
2018-09-08T10:11:13.741Z,20.94
2018-09-08T10:12:13.733Z,20.95
2018-09-08T10:13:13.698Z,20.97
2018-09-08T10:14:13.921Z,20.99
2018-09-08T10:15:13.691Z,21.02
2018-09-08T10:16:13.896Z,21.03
2018-09-08T10:17:13.515Z,21.05
2018-09-08T10:18:13.697Z,21.06
2018-09-08T10:19:13.542Z,21.09
2018-09-08T10:20:13.821Z,21.13
2018-09-08T10:21:13.871Z,21.14
2018-09-08T10:22:13.588Z,21.16
2018-09-08T10:23:13.677Z,21.17
2018-09-08T10:24:13.647Z,21.2
2018-09-08T10:25:13.826Z,21.2
2018-09-08T10:26:13.722Z,21.2
2018-09-08T10:27:13.752Z,21.22
2018-09-08T10:28:13.563Z,21.23
2018-09-08T10:29:13.712Z,21.24
2018-09-08T10:30:13.649Z,21.25
2018-09-08T10:31:14.084Z,21.25
2018-09-08T10:32:14.369Z,21.27
2018-09-08T10:33:13.970Z,21.27
2018-09-08T10:34:13.652Z,21.28
2018-09-08T10:35:13.686Z,21.3
2018-09-08T10:36:13.639Z,21.3
2018-09-08T10:37:13.872Z,21.31
2018-09-08T10:38:13.654Z,21.31
2018-09-08T10:39:14.002Z,21.32
2018-09-08T10:40:13.682Z,21.32
2018-09-08T10:41:13.646Z,21.32
2018-09-08T10:42:13.570Z,21.33
2018-09-08T10:43:14.016Z,21.33
2018-09-08T10:44:13.744Z,21.33
2018-09-08T10:45:13.630Z,21.33
2018-09-08T10:46:13.472Z,21.33
2018-09-08T10:47:13.708Z,21.32
2018-09-08T10:48:13.739Z,21.33
2018-09-08T10:49:13.567Z,21.33
2018-09-08T10:50:13.537Z,21.32
2018-09-08T10:51:13.686Z,21.32
2018-09-08T10:52:13.817Z,21.32
2018-09-08T10:53:13.607Z,21.32
2018-09-08T10:54:13.797Z,21.32
2018-09-08T10:55:13.677Z,21.32
2018-09-08T10:56:13.677Z,21.32
2018-09-08T10:57:13.628Z,21.32
2018-09-08T10:58:13.726Z,21.32
2018-09-08T10:59:13.519Z,21.31
2018-09-08T11:00:13.665Z,21.31
2018-09-08T11:01:13.830Z,21.32
2018-09-08T11:02:13.977Z,21.32
2018-09-08T11:03:13.708Z,21.33
2018-09-08T11:04:13.854Z,21.32
2018-09-08T11:05:13.671Z,21.33
2018-09-08T11:06:13.669Z,21.33
2018-09-08T11:07:13.578Z,21.32
2018-09-08T11:08:13.964Z,21.33
2018-09-08T11:09:13.914Z,21.33
2018-09-08T11:10:13.818Z,21.34
2018-09-08T11:11:13.754Z,21.34
2018-09-08T11:12:13.691Z,21.33
2018-09-08T11:13:13.727Z,21.33
2018-09-08T11:14:13.783Z,21.34
2018-09-08T11:15:13.787Z,21.34
2018-09-08T11:16:13.625Z,21.34
2018-09-08T11:17:13.811Z,21.34
2018-09-08T11:18:13.701Z,21.35
2018-09-08T11:19:13.671Z,21.35
2018-09-08T11:20:14.045Z,21.34
2018-09-08T11:21:13.704Z,21.35
2018-09-08T11:22:13.717Z,21.35
2018-09-08T11:23:13.716Z,21.35
2018-09-08T11:24:14.197Z,21.35
2018-09-08T11:25:13.537Z,21.35
2018-09-08T11:26:13.986Z,21.35
2018-09-08T11:27:13.886Z,21.35
2018-09-08T11:28:13.897Z,21.36
2018-09-08T11:29:13.722Z,21.36
2018-09-08T11:30:13.840Z,21.36
2018-09-08T11:31:13.848Z,21.36
2018-09-08T11:32:13.744Z,21.36
2018-09-08T11:33:13.723Z,21.37
2018-09-08T11:34:13.621Z,21.36
2018-09-08T11:35:13.771Z,21.37
2018-09-08T11:36:13.589Z,21.37
2018-09-08T11:37:13.810Z,21.37
2018-09-08T11:38:13.839Z,21.37
2018-09-08T11:39:13.692Z,21.37
2018-09-08T11:40:13.796Z,21.37
2018-09-08T11:41:13.540Z,21.38
2018-09-08T11:42:13.782Z,21.39
2018-09-08T11:43:13.549Z,21.39
2018-09-08T11:44:13.641Z,21.39
2018-09-08T11:45:13.695Z,21.41
2018-09-08T11:46:13.889Z,21.42
2018-09-08T11:47:13.740Z,21.45
2018-09-08T11:48:13.674Z,21.48
2018-09-08T11:49:13.528Z,21.5
2018-09-08T11:50:13.738Z,21.5
2018-09-08T11:51:13.717Z,21.52
2018-09-08T11:52:13.689Z,21.53
2018-09-08T11:53:13.798Z,21.53
2018-09-08T11:54:13.687Z,21.54
2018-09-08T11:55:13.646Z,21.56
2018-09-08T11:56:13.819Z,21.56
2018-09-08T11:57:13.814Z,21.58
2018-09-08T11:58:13.816Z,21.6
2018-09-08T11:59:13.730Z,21.6
2018-09-08T12:00:14.021Z,21.61
2018-09-08T12:01:13.964Z,21.62
2018-09-08T12:02:13.801Z,21.6
2018-09-08T12:03:13.764Z,21.62
2018-09-08T12:04:13.639Z,21.65
2018-09-08T12:05:13.853Z,21.66
2018-09-08T12:06:13.605Z,21.68
2018-09-08T12:07:13.664Z,21.7
2018-09-08T12:08:13.763Z,21.7
2018-09-08T12:09:13.790Z,21.72
2018-09-08T12:10:13.593Z,21.72
2018-09-08T12:11:13.614Z,21.74
2018-09-08T12:12:13.447Z,21.75
2018-09-08T12:13:13.752Z,21.75
2018-09-08T12:14:13.797Z,21.74
2018-09-08T12:15:13.719Z,21.76
2018-09-08T12:16:13.775Z,21.78
2018-09-08T12:17:13.699Z,21.81
2018-09-08T12:18:13.705Z,21.81
2018-09-08T12:19:13.943Z,21.79
2018-09-08T12:20:13.692Z,21.8
2018-09-08T12:21:13.675Z,21.81
2018-09-08T12:22:13.950Z,21.8
2018-09-08T12:23:13.661Z,21.81
2018-09-08T12:24:13.666Z,21.82
2018-09-08T12:25:17.117Z,21.82
2018-09-08T12:26:13.504Z,21.82
2018-09-08T12:27:13.688Z,21.82
2018-09-08T12:28:13.909Z,21.82
2018-09-08T12:29:13.744Z,21.82
2018-09-08T12:30:13.591Z,21.82
2018-09-08T12:31:13.594Z,21.83
2018-09-08T12:32:13.452Z,21.83
2018-09-08T12:33:13.644Z,21.84
2018-09-08T12:34:13.734Z,21.83
2018-09-08T12:35:13.876Z,21.85
2018-09-08T12:36:13.849Z,21.86
2018-09-08T12:37:14.029Z,21.86
2018-09-08T12:38:13.578Z,21.87
2018-09-08T12:39:13.743Z,21.88
2018-09-08T12:40:13.600Z,21.88
2018-09-08T12:41:13.680Z,21.88
2018-09-08T12:42:13.941Z,21.9
2018-09-08T12:43:13.453Z,21.91
2018-09-08T12:44:13.662Z,21.9
2018-09-08T12:45:13.725Z,21.92
2018-09-08T12:46:14.040Z,21.92
2018-09-08T12:47:13.788Z,21.92
2018-09-08T12:48:13.744Z,21.93
2018-09-08T12:49:13.645Z,21.94
2018-09-08T12:50:13.731Z,21.94
2018-09-08T12:51:13.739Z,21.95
2018-09-08T12:52:13.729Z,21.94
2018-09-08T12:53:13.765Z,21.93
2018-09-08T12:54:13.562Z,21.93
2018-09-08T12:55:13.879Z,21.94
2018-09-08T12:56:14.015Z,21.94